Time;durP1;ratioP1;P1;durP2;ratioP2;P2;SDS_P1;SDS_P2;PMS_P1;PMS_P2;Temp;Humidity;BMP_temperature;BMP_pressure;BME280_temperature;BME280_humidity;BME280_pressure;Samples;Min_cycle;Max_cycle;Signal;HPM_P1;HPM_P2
2022/09/27 00:01:11;;;;;;;;;;;435.80;2355.20;;;;;;5089958;28;19931;-57
2022/09/27 00:03:37;;;;;;;;;;;435.70;2355.20;;;;;;5089899;28;19920;-60
2022/09/27 00:06:24;;;;;;;;;;;435.60;2355.20;;;;;;5090013;28;20007;-59
2022/09/27 00:08:49;;;;;;;;;;;435.60;2355.20;;;;;;5093554;28;19908;-61
2022/09/27 00:11:26;;;;;;;;;;;435.60;2355.20;;;;;;5094137;28;19916;-58
2022/09/27 00:13:52;;;;;;;;;;;435.60;2355.20;;;;;;5093830;28;19908;-60
2022/09/27 00:16:17;;;;;;;;;;;435.50;2355.20;;;;;;5093990;28;19908;-59
2022/09/27 00:18:43;;;;;;;;;;;435.40;2355.20;;;;;;5093761;28;19908;-58
2022/09/27 00:21:11;;;;;;;;;;;435.40;2355.20;;;;;;5093782;28;19912;-59
2022/09/27 00:23:37;;;;;;;;;;;435.50;2355.20;;;;;;5093823;28;19953;-58
2022/09/27 00:26:03;;;;;;;;;;;435.40;2355.20;;;;;;5093495;28;19908;-59
2022/09/27 00:28:29;;;;;;;;;;;435.40;2355.20;;;;;;5093638;28;20000;-59
2022/09/27 00:30:56;;;;;;;;;;;435.30;2355.20;;;;;;5093551;28;19915;-60
2022/09/27 00:33:21;;;;;;;;;;;435.30;2355.20;;;;;;5093325;28;19912;-59
2022/09/27 00:35:47;;;;;;;;;;;435.30;2355.20;;;;;;5093669;28;20015;-59
2022/09/27 00:38:12;;;;;;;;;;;435.30;2355.20;;;;;;5093439;28;19908;-60
2022/09/27 00:40:38;;;;;;;;;;;410.50;2355.20;;;;;;5093599;28;19955;-59
2022/09/27 00:43:12;;;;;;;;;;;410.30;2355.20;;;;;;5093393;28;20373;-58
2022/09/27 00:45:38;;;;;;;;;;;410.30;2355.20;;;;;;5093390;28;19923;-60
2022/09/27 00:48:04;;;;;;;;;;;410.30;2355.20;;;;;;5093079;28;19912;-60
2022/09/27 00:50:35;;;;;;;;;;;410.30;2355.20;;;;;;5093113;28;19915;-60
2022/09/27 00:53:20;;;;;;;;;;;410.30;2355.20;;;;;;5093012;28;19915;-59
2022/09/27 00:55:50;;;;;;;;;;;410.30;2355.20;;;;;;5093211;28;19908;-59
2022/09/27 00:58:17;;;;;;;;;;;410.30;2355.20;;;;;;5093255;28;19979;-60
2022/09/27 01:00:43;;;;;;;;;;;410.40;2355.20;;;;;;5092853;28;19909;-59
2022/09/27 01:03:11;;;;;;;;;;;410.30;2355.20;;;;;;5092462;28;19912;-60
2022/09/27 01:05:38;;;;;;;;;;;410.40;2355.20;;;;;;5093088;28;19920;-60
2022/09/27 01:08:04;;;;;;;;;;;410.50;2355.20;;;;;;5092843;28;19915;-59
2022/09/27 01:10:33;;;;;;;;;;;410.40;2355.20;;;;;;5092518;28;19908;-59
2022/09/27 01:13:01;;;;;;;;;;;410.30;2355.20;;;;;;5092928;28;19908;-59
2022/09/27 01:15:33;;;;;;;;;;;410.40;2355.20;;;;;;5092925;28;19909;-59
2022/09/27 01:18:17;;;;;;;;;;;410.30;2355.20;;;;;;5092650;28;19912;-59
2022/09/27 01:20:45;;;;;;;;;;;410.30;2355.20;;;;;;5092307;28;19908;-59
2022/09/27 01:23:20;;;;;;;;;;;410.20;2355.20;;;;;;5092485;28;19912;-59
2022/09/27 01:26:04;;;;;;;;;;;410.20;2355.20;;;;;;5092868;28;20334;-58
2022/09/27 01:28:31;;;;;;;;;;;410.10;2355.20;;;;;;5092406;28;19908;-60
2022/09/27 01:30:57;;;;;;;;;;;410.20;2355.20;;;;;;5092323;28;19916;-59
2022/09/27 01:33:29;;;;;;;;;;;410.00;2355.20;;;;;;5091969;28;19912;-59
2022/09/27 01:35:55;;;;;;;;;;;410.00;2355.20;;;;;;5092489;28;19998;-59
2022/09/27 01:38:25;;;;;;;;;;;410.00;2355.20;;;;;;5092171;28;20314;-60
2022/09/27 01:41:09;;;;;;;;;;;409.90;2355.20;;;;;;5092022;28;20446;-60
2022/09/27 01:43:54;;;;;;;;;;;409.90;2355.20;;;;;;5092645;28;19912;-61
2022/09/27 01:46:24;;;;;;;;;;;409.80;2355.20;;;;;;5091909;28;19958;-60
2022/09/27 01:48:49;;;;;;;;;;;409.80;2355.20;;;;;;5091883;28;19961;-60
2022/09/27 01:51:17;;;;;;;;;;;409.70;2355.20;;;;;;5092312;28;19912;-59
2022/09/27 01:53:47;;;;;;;;;;;409.70;2355.20;;;;;;5091700;28;19908;-58
2022/09/27 01:56:17;;;;;;;;;;;409.70;2355.20;;;;;;5091683;28;19984;-59
2022/09/27 01:58:51;;;;;;;;;;;409.60;2355.20;;;;;;5091714;28;19915;-60
2022/09/27 02:01:17;;;;;;;;;;;384.90;2329.60;;;;;;5091794;28;20278;-58
2022/09/27 02:03:46;;;;;;;;;;;409.60;2355.20;;;;;;5091160;28;19920;-59
2022/09/27 02:06:18;;;;;;;;;;;409.60;2355.20;;;;;;5091622;28;19974;-59
2022/09/27 02:08:49;;;;;;;;;;;409.60;2355.20;;;;;;5091610;28;19908;-61
2022/09/27 02:11:14;;;;;;;;;;;384.90;2329.60;;;;;;5091651;28;19908;-60
2022/09/27 02:13:40;;;;;;;;;;;384.80;2329.60;;;;;;5091350;28;19912;-59
2022/09/27 02:16:06;;;;;;;;;;;384.70;2329.60;;;;;;5091720;28;19950;-60
2022/09/27 02:18:35;;;;;;;;;;;384.70;2329.60;;;;;;5091223;28;19959;-59
2022/09/27 02:21:03;;;;;;;;;;;384.70;2329.60;;;;;;5091214;28;20353;-59
2022/09/27 02:23:43;;;;;;;;;;;384.50;2201.60;;;;;;5091340;28;20424;-59
2022/09/27 02:26:09;;;;;;;;;;;384.40;2329.60;;;;;;5091289;28;19977;-61
2022/09/27 02:28:43;;;;;;;;;;;384.20;2329.60;;;;;;5091292;28;19908;-58
2022/09/27 02:31:09;;;;;;;;;;;384.20;2329.60;;;;;;5090574;28;19919;-59
2022/09/27 02:33:42;;;;;;;;;;;384.10;2329.60;;;;;;5091262;28;19913;-59
2022/09/27 02:36:08;;;;;;;;;;;384.10;2329.60;;;;;;5091161;28;20356;-59
2022/09/27 02:38:34;;;;;;;;;;;384.10;2329.60;;;;;;5091077;28;19908;-59
2022/09/27 02:40:59;;;;;;;;;;;384.10;2329.60;;;;;;5091049;28;19908;-59
2022/09/27 02:43:27;;;;;;;;;;;384.30;2329.60;;;;;;5091104;28;19961;-59
2022/09/27 02:45:53;;;;;;;;;;;384.50;2329.60;;;;;;5090652;28;19916;-59
2022/09/27 02:48:30;;;;;;;;;;;384.60;2329.60;;;;;;5090932;28;19915;-60
2022/09/27 02:50:56;;;;;;;;;;;384.80;2124.80;;;;;;5090869;28;19908;-59
2022/09/27 02:53:40;;;;;;;;;;;384.80;2201.60;;;;;;5090599;28;19908;-58
2022/09/27 02:56:12;;;;;;;;;;;384.90;2329.60;;;;;;5090867;28;20408;-60
2022/09/27 02:58:37;;;;;;;;;;;384.90;2329.60;;;;;;5090866;28;19915;-59
2022/09/27 03:01:18;;;;;;;;;;;384.90;2329.60;;;;;;5090778;28;19909;-59
2022/09/27 03:03:44;;;;;;;;;;;384.90;2329.60;;;;;;5090425;28;19924;-59
2022/09/27 03:06:10;;;;;;;;;;;384.80;2329.60;;;;;;5090653;28;19927;-59
2022/09/27 03:08:40;;;;;;;;;;;384.80;2329.60;;;;;;5090973;28;19908;-59
2022/09/27 03:11:05;;;;;;;;;;;384.80;2329.60;;;;;;5090759;28;19908;-59
2022/09/27 03:13:32;;;;;;;;;;;384.80;2329.60;;;;;;5090536;28;20258;-60
2022/09/27 03:15:58;;;;;;;;;;;384.60;2329.60;;;;;;5090816;28;20399;-59
2022/09/27 03:18:23;;;;;;;;;;;384.30;2329.60;;;;;;5090531;28;19908;-59
2022/09/27 03:20:51;;;;;;;;;;;384.30;2329.60;;;;;;5090614;28;20330;-59
2022/09/27 03:23:16;;;;;;;;;;;384.20;2329.60;;;;;;5090725;28;19908;-60
2022/09/27 03:25:42;;;;;;;;;;;384.10;2329.60;;;;;;5090437;28;19916;-60
2022/09/27 03:28:08;;;;;;;;;;;384.00;2329.60;;;;;;5090727;28;20343;-59
2022/09/27 03:30:34;;;;;;;;;;;384.10;2329.60;;;;;;5090537;28;19930;-59
2022/09/27 03:33:00;;;;;;;;;;;384.30;2329.60;;;;;;5090248;28;19912;-60
2022/09/27 03:35:26;;;;;;;;;;;384.40;2304.00;;;;;;5090430;28;19912;-59
2022/09/27 03:37:51;;;;;;;;;;;384.50;2329.60;;;;;;5090459;28;19934;-59
2022/09/27 03:40:17;;;;;;;;;;;384.60;2329.60;;;;;;5090698;28;19953;-59
2022/09/27 03:42:43;;;;;;;;;;;384.60;2329.60;;;;;;5093741;28;19951;-59
2022/09/27 03:45:08;;;;;;;;;;;384.70;2329.60;;;;;;5094147;28;19927;-59
2022/09/27 03:47:38;;;;;;;;;;;384.70;2329.60;;;;;;5094298;28;19908;-59
2022/09/27 03:50:04;;;;;;;;;;;384.80;2329.60;;;;;;5094148;28;19966;-60
2022/09/27 03:52:29;;;;;;;;;;;384.80;2329.60;;;;;;5094335;28;20286;-60
2022/09/27 03:54:55;;;;;;;;;;;384.90;2329.60;;;;;;5094203;28;20343;-59
2022/09/27 03:57:21;;;;;;;;;;;384.90;2329.60;;;;;;5093811;28;19908;-59
2022/09/27 03:59:47;;;;;;;;;;;384.80;2329.60;;;;;;5094209;28;19916;-60
2022/09/27 04:02:12;;;;;;;;;;;384.90;2329.60;;;;;;5093798;28;19948;-60
2022/09/27 04:04:38;;;;;;;;;;;384.90;2329.60;;;;;;5093694;28;19946;-60
2022/09/27 04:07:03;;;;;;;;;;;384.90;2329.60;;;;;;5093936;28;19912;-60
2022/09/27 04:09:29;;;;;;;;;;;384.90;2329.60;;;;;;5094044;28;19908;-60
2022/09/27 04:11:54;;;;;;;;;;;409.60;2355.20;;;;;;5094036;28;20302;-59
2022/09/27 04:14:20;;;;;;;;;;;409.60;2355.20;;;;;;5093861;28;19908;-60
2022/09/27 04:16:45;;;;;;;;;;;409.60;2355.20;;;;;;5094010;28;19908;-60
2022/09/27 04:19:11;;;;;;;;;;;409.60;2355.20;;;;;;5093775;28;19915;-61
2022/09/27 04:21:37;;;;;;;;;;;409.60;2355.20;;;;;;5093711;28;19915;-59
2022/09/27 04:24:04;;;;;;;;;;;384.90;2329.60;;;;;;5093739;28;19915;-60
2022/09/27 04:26:29;;;;;;;;;;;384.90;2329.60;;;;;;5093629;28;19908;-60
2022/09/27 04:28:55;;;;;;;;;;;384.80;2329.60;;;;;;5093891;28;19954;-59
2022/09/27 04:31:21;;;;;;;;;;;384.80;2329.60;;;;;;5093421;28;20330;-59
2022/09/27 04:33:47;;;;;;;;;;;384.80;2329.60;;;;;;5093671;28;19943;-59
2022/09/27 04:36:25;;;;;;;;;;;384.90;2329.60;;;;;;5093017;28;20316;-58
2022/09/27 04:38:54;;;;;;;;;;;384.90;2329.60;;;;;;5093011;28;20269;-59
2022/09/27 04:41:20;;;;;;;;;;;384.90;2329.60;;;;;;5093330;28;19908;-60
2022/09/27 04:43:46;;;;;;;;;;;384.90;2329.60;;;;;;5093423;28;19954;-61
2022/09/27 04:46:12;;;;;;;;;;;384.90;2329.60;;;;;;5093004;28;19908;-59
2022/09/27 04:48:38;;;;;;;;;;;384.90;2329.60;;;;;;5093266;28;19916;-61
2022/09/27 04:51:05;;;;;;;;;;;384.80;2329.60;;;;;;5093170;28;20415;-60
2022/09/27 04:53:30;;;;;;;;;;;384.90;2329.60;;;;;;5092316;28;20358;-60
2022/09/27 04:55:56;;;;;;;;;;;409.60;2355.20;;;;;;5093119;28;19995;-59
2022/09/27 04:58:22;;;;;;;;;;;409.60;2355.20;;;;;;5092752;28;20281;-59
2022/09/27 05:00:51;;;;;;;;;;;409.60;2355.20;;;;;;5093148;28;19916;-59
2022/09/27 05:03:18;;;;;;;;;;;409.70;2355.20;;;;;;5092953;28;19935;-59
2022/09/27 05:05:43;;;;;;;;;;;409.70;2355.20;;;;;;5092640;28;19920;-60
2022/09/27 05:08:09;;;;;;;;;;;409.80;2355.20;;;;;;5092622;28;20291;-60
2022/09/27 05:10:35;;;;;;;;;;;409.90;2355.20;;;;;;5092872;28;19915;-59
2022/09/27 05:13:01;;;;;;;;;;;409.90;2355.20;;;;;;5092665;28;20358;-59
2022/09/27 05:15:26;;;;;;;;;;;410.00;2355.20;;;;;;5092760;28;19908;-59
2022/09/27 05:17:52;;;;;;;;;;;410.00;2355.20;;;;;;5092415;28;19908;-59
2022/09/27 05:20:18;;;;;;;;;;;410.10;2355.20;;;;;;5092697;28;19940;-60
2022/09/27 05:22:44;;;;;;;;;;;410.20;2355.20;;;;;;5092483;28;19954;-60
2022/09/27 05:25:10;;;;;;;;;;;410.20;2355.20;;;;;;5092220;28;19920;-59
2022/09/27 05:27:35;;;;;;;;;;;410.20;2355.20;;;;;;5092319;28;19908;-59
2022/09/27 05:30:01;;;;;;;;;;;410.20;2355.20;;;;;;5092501;28;19915;-59
2022/09/27 05:32:28;;;;;;;;;;;410.30;2355.20;;;;;;5092341;28;19912;-59
2022/09/27 05:34:53;;;;;;;;;;;410.30;2355.20;;;;;;5091908;28;19912;-59
2022/09/27 05:37:19;;;;;;;;;;;410.30;2355.20;;;;;;5092126;28;19912;-59
2022/09/27 05:39:45;;;;;;;;;;;410.50;2355.20;;;;;;5092332;28;19908;-60
2022/09/27 05:42:12;;;;;;;;;;;435.20;2355.20;;;;;;5092142;28;19942;-60
2022/09/27 05:44:38;;;;;;;;;;;435.30;2355.20;;;;;;5092046;28;19920;-60
2022/09/27 05:47:04;;;;;;;;;;;435.40;2355.20;;;;;;5091861;28;19934;-59
2022/09/27 05:49:30;;;;;;;;;;;435.60;2355.20;;;;;;5091788;28;20001;-60
2022/09/27 05:51:56;;;;;;;;;;;435.80;2355.20;;;;;;5091925;28;19908;-61
2022/09/27 05:54:22;;;;;;;;;;;436.00;2355.20;;;;;;5091795;28;19908;-61
2022/09/27 05:56:47;;;;;;;;;;;436.00;2355.20;;;;;;5091957;28;20385;-61
2022/09/27 05:59:13;;;;;;;;;;;436.00;2355.20;;;;;;5091788;28;19936;-60
2022/09/27 06:01:39;;;;;;;;;;;435.90;2355.20;;;;;;5091708;28;20661;-60
2022/09/27 06:04:04;;;;;;;;;;;436.10;2355.20;;;;;;5091154;28;19921;-60
2022/09/27 06:06:33;;;;;;;;;;;460.80;2380.80;;;;;;5090997;28;20289;-60
2022/09/27 06:09:00;;;;;;;;;;;460.80;2380.80;;;;;;5091898;28;19909;-60
2022/09/27 06:11:26;;;;;;;;;;;460.90;2380.80;;;;;;5091668;28;19908;-60
2022/09/27 06:13:52;;;;;;;;;;;460.90;2380.80;;;;;;5091505;28;20358;-61
2022/09/27 06:16:17;;;;;;;;;;;460.90;2380.80;;;;;;5091005;28;19912;-58
2022/09/27 06:18:43;;;;;;;;;;;460.90;2380.80;;;;;;5090734;28;19912;-60
2022/09/27 06:21:08;;;;;;;;;;;460.80;2380.80;;;;;;5091122;28;20895;-58
2022/09/27 06:23:34;;;;;;;;;;;460.90;2380.80;;;;;;5091294;28;19915;-59
2022/09/27 06:26:01;;;;;;;;;;;461.10;2380.80;;;;;;5091223;28;19924;-64
2022/09/27 06:28:27;;;;;;;;;;;461.60;2380.80;;;;;;5091317;28;19908;-69
2022/09/27 06:30:53;;;;;;;;;;;486.80;2380.80;;;;;;5090944;28;20026;-58
2022/09/27 06:33:19;;;;;;;;;;;486.50;2380.80;;;;;;5091310;28;19922;-66
2022/09/27 06:35:45;;;;;;;;;;;486.50;2380.80;;;;;;5091269;28;19913;-69
2022/09/27 06:38:12;;;;;;;;;;;486.70;2380.80;;;;;;5090903;28;19912;-59
2022/09/27 06:40:38;;;;;;;;;;;486.90;2380.80;;;;;;5091159;28;19908;-69
2022/09/27 06:43:04;;;;;;;;;;;486.90;2380.80;;;;;;5090958;28;20258;-60
2022/09/27 06:45:31;;;;;;;;;;;486.90;2380.80;;;;;;5090821;28;19916;-63
2022/09/27 06:47:57;;;;;;;;;;;487.00;2380.80;;;;;;5090827;28;20007;-61
2022/09/27 06:50:23;;;;;;;;;;;487.00;2380.80;;;;;;5090986;28;19947;-64
2022/09/27 06:52:49;;;;;;;;;;;487.20;2380.80;;;;;;5091131;28;19912;-64
2022/09/27 06:55:15;;;;;;;;;;;538.40;2406.40;;;;;;5091098;28;19908;-64
2022/09/27 07:00:27;;;;;;;;;;;538.10;2406.40;;;;;;5091207;28;20007;-65
2022/09/27 07:02:59;;;;;;;;;;;538.50;2406.40;;;;;;5090333;28;19991;-64
2022/09/27 07:05:28;;;;;;;;;;;563.20;2432.00;;;;;;5090656;28;19924;-65
2022/09/27 07:07:57;;;;;;;;;;;563.20;2432.00;;;;;;5090975;28;19947;-64
2022/09/27 07:10:24;;;;;;;;;;;589.00;2432.00;;;;;;5090551;28;19912;-65
2022/09/27 07:12:51;;;;;;;;;;;589.00;2432.00;;;;;;5090604;28;19954;-63
2022/09/27 07:15:17;;;;;;;;;;;614.40;2432.00;;;;;;5090983;28;19908;-65
2022/09/27 07:17:43;;;;;;;;;;;615.30;2432.00;;;;;;5090196;28;19909;-65
2022/09/27 07:20:08;;;;;;;;;;;716.80;2124.80;;;;;;5090759;28;19919;-65
2022/09/27 07:22:41;;;;;;;;;;;743.30;1920.00;;;;;;5090568;28;20384;-64
2022/09/27 07:25:07;;;;;;;;;;;768.50;1766.40;;;;;;5090610;28;20034;-64
2022/09/27 07:27:33;;;;;;;;;;;793.90;1740.80;;;;;;5090334;28;19943;-65
2022/09/27 07:29:59;;;;;;;;;;;845.30;1587.20;;;;;;5090381;28;20012;-61
2022/09/27 07:32:25;;;;;;;;;;;820.00;1561.60;;;;;;5090496;28;20357;-65
2022/09/27 07:34:50;;;;;;;;;;;794.40;1638.40;;;;;;5090093;28;19934;-64
2022/09/27 07:37:16;;;;;;;;;;;844.90;1587.20;;;;;;5090623;28;20003;-65
2022/09/27 07:39:42;;;;;;;;;;;;;;;;;;5090189;28;19934;-64
2022/09/27 07:42:08;;;;;;;;;;;845.20;1536.00;;;;;;5090439;28;19908;-64
2022/09/27 07:44:34;;;;;;;;;;;793.80;1664.00;;;;;;5090251;28;19917;-63
2022/09/27 07:46:59;;;;;;;;;;;768.10;1664.00;;;;;;5090197;28;19915;-59
2022/09/27 07:49:25;;;;;;;;;;;;;;;;;;5090364;28;20357;-64
2022/09/27 07:51:51;;;;;;;;;;;742.60;1715.20;;;;;;5090111;28;19909;-63
2022/09/27 07:54:16;;;;;;;;;;;794.50;1587.20;;;;;;5090561;28;19915;-63
2022/09/27 07:56:44;;;;;;;;;;;794.40;1587.20;;;;;;5090161;28;19912;-64
2022/09/27 07:59:09;;;;;;;;;;;819.60;1561.60;;;;;;5089959;28;19912;-60
2022/09/27 08:01:35;;;;;;;;;;;819.40;1536.00;;;;;;5090300;28;19915;-64
2022/09/27 08:04:01;;;;;;;;;;;;;;;;;;5089752;28;19949;-64
2022/09/27 08:06:27;;;;;;;;;;;870.50;1484.80;;;;;;5090246;28;19917;-65
2022/09/27 08:08:53;;;;;;;;;;;870.50;1459.20;;;;;;5090045;28;20429;-59
2022/09/27 08:11:20;;;;;;;;;;;;;;;;;;5090594;28;19912;-60
2022/09/27 08:13:48;;;;;;;;;;;;;;;;;;5090375;28;19908;-65
2022/09/27 08:16:14;;;;;;;;;;;870.50;1459.20;;;;;;5090073;28;19951;-64
2022/09/27 08:18:39;;;;;;;;;;;716.90;1740.80;;;;;;5090031;28;19959;-60
2022/09/27 08:21:05;;;;;;;;;;;691.80;1766.40;;;;;;5090440;28;19965;-61
2022/09/27 08:23:31;;;;;;;;;;;666.10;1868.80;;;;;;5089915;28;20366;-58
2022/09/27 08:25:58;;;;;;;;;;;640.90;1920.00;;;;;;5090133;28;19916;-64
2022/09/27 08:28:25;;;;;;;;;;;665.70;1945.60;;;;;;5091254;28;19915;-63
2022/09/27 08:30:50;;;;;;;;;;;665.70;1945.60;;;;;;5093367;28;19953;-58
2022/09/27 08:33:16;;;;;;;;;;;615.20;2022.40;;;;;;5093629;28;20014;-63
2022/09/27 08:35:42;;;;;;;;;;;640.70;1971.20;;;;;;5093393;28;20393;-59
2022/09/27 08:38:08;;;;;;;;;;;691.60;1843.20;;;;;;5093521;28;20448;-64
2022/09/27 08:40:36;;;;;;;;;;;665.70;1945.60;;;;;;5093449;28;19942;-64
2022/09/27 08:43:02;;;;;;;;;;;666.50;1945.60;;;;;;5093298;28;19908;-64
2022/09/27 08:45:29;;;;;;;;;;;666.20;1971.20;;;;;;5093446;28;19939;-63
2022/09/27 08:47:59;;;;;;;;;;;665.90;1971.20;;;;;;5093305;28;19908;-63
2022/09/27 08:50:26;;;;;;;;;;;691.60;1894.40;;;;;;5092954;28;19908;-63
2022/09/27 08:52:55;;;;;;;;;;;717.10;1817.60;;;;;;5092967;28;19908;-64
2022/09/27 08:55:30;;;;;;;;;;;717.30;1792.00;;;;;;5093164;28;19908;-62
2022/09/27 08:57:57;;;;;;;;;;;691.30;1868.80;;;;;;5091575;28;19908;-63
2022/09/27 09:00:23;;;;;;;;;;;691.70;1843.20;;;;;;5092769;28;19991;-63
2022/09/27 09:02:48;;;;;;;;;;;666.40;1920.00;;;;;;5092843;28;19959;-62
2022/09/27 09:05:18;;;;;;;;;;;665.70;1945.60;;;;;;5092456;28;19977;-63
2022/09/27 09:08:02;;;;;;;;;;;666.00;1971.20;;;;;;5092676;28;19916;-64
2022/09/27 09:13:18;;;;;;;;;;;666.30;1945.60;;;;;;5092740;28;20367;-62
2022/09/27 09:15:55;;;;;;;;;;;691.30;1920.00;;;;;;5093029;28;20002;-63
2022/09/27 09:18:39;;;;;;;;;;;666.40;1945.60;;;;;;5092576;28;19954;-64
2022/09/27 09:21:08;;;;;;;;;;;665.70;1945.60;;;;;;5092808;28;20379;-62
2022/09/27 09:23:52;;;;;;;;;;;665.90;1996.80;;;;;;5092561;28;20351;-63
2022/09/27 09:26:27;;;;;;;;;;;665.60;1971.20;;;;;;5092679;28;19916;-63
2022/09/27 09:28:52;;;;;;;;;;;640.60;1971.20;;;;;;5092375;28;19908;-63
2022/09/27 09:31:27;;;;;;;;;;;640.80;1996.80;;;;;;5092589;28;20026;-62
2022/09/27 09:34:04;;;;;;;;;;;665.70;1996.80;;;;;;5092204;28;19916;-63
2022/09/27 09:36:38;;;;;;;;;;;640.40;1996.80;;;;;;5091855;28;20354;-63
2022/09/27 09:39:04;;;;;;;;;;;640.10;2022.40;;;;;;5091847;28;19908;-67
2022/09/27 09:41:32;;;;;;;;;;;615.00;2073.60;;;;;;5092159;28;19915;-67
2022/09/27 09:44:13;;;;;;;;;;;615.30;2073.60;;;;;;5092097;28;19908;-58
2022/09/27 09:46:40;;;;;;;;;;;615.30;2073.60;;;;;;5092079;28;19919;-58
2022/09/27 09:49:16;;;;;;;;;;;615.00;2124.80;;;;;;5092033;28;19908;-59
2022/09/27 09:51:46;;;;;;;;;;;640.00;2099.20;;;;;;5091763;28;19908;-62
2022/09/27 09:54:34;;;;;;;;;;;615.30;2099.20;;;;;;5091893;28;20314;-64
2022/09/27 09:57:11;;;;;;;;;;;640.00;2124.80;;;;;;5091810;28;19916;-60
2022/09/27 09:59:41;;;;;;;;;;;640.70;2073.60;;;;;;5091174;28;20003;-68
2022/09/27 10:02:33;;;;;;;;;;;640.40;2073.60;;;;;;5091223;28;20365;-68
2022/09/27 10:04:59;;;;;;;;;;;640.30;2073.60;;;;;;5048910;28;19954;-64
2022/09/27 10:07:26;;;;;;;;;;;640.20;2099.20;;;;;;5049163;28;20327;-68
2022/09/27 10:09:53;;;;;;;;;;;640.10;2099.20;;;;;;5049073;28;19958;-67
2022/09/27 10:12:19;;;;;;;;;;;640.00;2124.80;;;;;;5049277;28;19912;-59
2022/09/27 10:14:45;;;;;;;;;;;615.20;2176.00;;;;;;5049373;28;20479;-59
2022/09/27 10:17:13;;;;;;;;;;;615.10;2176.00;;;;;;5048806;28;20345;-58
2022/09/27 10:19:40;;;;;;;;;;;640.00;2176.00;;;;;;5049003;28;20560;-60
2022/09/27 10:22:27;;;;;;;;;;;615.30;2201.60;;;;;;5049118;28;20433;-59
2022/09/27 10:24:57;;;;;;;;;;;640.00;2201.60;;;;;;5048464;28;19971;-68
2022/09/27 10:27:24;;;;;;;;;;;640.60;2201.60;;;;;;5048580;28;19954;-67
2022/09/27 10:29:57;;;;;;;;;;;640.00;2201.60;;;;;;5048747;28;19909;-61
2022/09/27 10:32:26;;;;;;;;;;;640.30;2176.00;;;;;;5048504;28;19909;-68
2022/09/27 10:34:51;;;;;;;;;;;640.20;2176.00;;;;;;5048434;28;19920;-68
2022/09/27 10:37:20;;;;;;;;;;;640.90;2150.40;;;;;;5048862;28;19913;-67
2022/09/27 10:39:46;;;;;;;;;;;640.50;2150.40;;;;;;5048729;28;19916;-68
2022/09/27 10:42:38;;;;;;;;;;;665.70;2150.40;;;;;;5077265;28;20381;-67
2022/09/27 10:45:24;;;;;;;;;;;665.60;2150.40;;;;;;5088452;28;20354;-69
2022/09/27 10:47:50;;;;;;;;;;;665.60;2150.40;;;;;;5090625;28;19912;-59
2022/09/27 10:50:38;;;;;;;;;;;640.10;2201.60;;;;;;5091118;28;19915;-68
2022/09/27 10:53:03;;;;;;;;;;;640.20;2176.00;;;;;;5090879;28;19908;-59
2022/09/27 10:55:31;;;;;;;;;;;615.30;2201.60;;;;;;5090754;28;20266;-58
2022/09/27 10:57:57;;;;;;;;;;;615.00;2201.60;;;;;;5090998;28;19915;-68
2022/09/27 11:00:28;;;;;;;;;;;615.00;2227.20;;;;;;5090566;28;20243;-68
2022/09/27 11:03:00;;;;;;;;;;;615.00;2227.20;;;;;;5090259;28;20653;-59
2022/09/27 11:05:26;;;;;;;;;;;615.20;2227.20;;;;;;5090671;28;20362;-59
2022/09/27 11:08:01;;;;;;;;;;;614.90;2227.20;;;;;;5090616;28;19991;-61
2022/09/27 11:10:31;;;;;;;;;;;614.90;2227.20;;;;;;5090670;28;19915;-65
2022/09/27 11:13:07;;;;;;;;;;;615.00;2227.20;;;;;;5090708;28;19915;-58
2022/09/27 11:15:44;;;;;;;;;;;615.20;2227.20;;;;;;5090676;28;19995;-58
2022/09/27 11:18:16;;;;;;;;;;;615.30;2201.60;;;;;;5090602;28;19912;-60
2022/09/27 11:20:49;;;;;;;;;;;615.10;2227.20;;;;;;5090285;28;19908;-68
2022/09/27 11:23:22;;;;;;;;;;;615.20;2201.60;;;;;;5090655;28;19908;-59
2022/09/27 11:26:07;;;;;;;;;;;614.90;2355.20;;;;;;5090477;28;19920;-60
2022/09/27 11:28:48;;;;;;;;;;;614.60;2432.00;;;;;;5090448;28;20281;-59
2022/09/27 11:31:25;;;;;;;;;;;589.50;2432.00;;;;;;5090291;28;20471;-58
2022/09/27 11:34:03;;;;;;;;;;;589.30;2432.00;;;;;;5090080;28;20308;-64
2022/09/27 11:36:34;;;;;;;;;;;588.90;2432.00;;;;;;5090206;28;19916;-59
2022/09/27 11:39:08;;;;;;;;;;;564.10;2432.00;;;;;;5090172;28;20003;-59
2022/09/27 11:41:40;;;;;;;;;;;563.70;2432.00;;;;;;5090390;28;19908;-59
2022/09/27 11:44:24;;;;;;;;;;;563.50;2432.00;;;;;;5090231;28;20346;-59
2022/09/27 11:47:04;;;;;;;;;;;538.30;2406.40;;;;;;5090051;28;19908;-61
2022/09/27 11:49:42;;;;;;;;;;;512.90;2380.80;;;;;;5090021;28;19908;-67
2022/09/27 11:52:15;;;;;;;;;;;512.70;2380.80;;;;;;5090434;28;19989;-69
2022/09/27 11:54:58;;;;;;;;;;;512.40;2380.80;;;;;;5087970;28;19912;-61
2022/09/27 11:57:26;;;;;;;;;;;512.20;2380.80;;;;;;5088679;28;19915;-65
2022/09/27 11:59:51;;;;;;;;;;;512.00;2380.80;;;;;;5088560;28;19908;-63
2022/09/27 12:02:29;;;;;;;;;;;512.20;2380.80;;;;;;5088723;28;20293;-61
2022/09/27 12:05:20;;;;;;;;;;;512.00;2380.80;;;;;;5092046;28;20014;-64
2022/09/27 12:07:54;;;;;;;;;;;487.30;2380.80;;;;;;5075404;28;19912;-70
2022/09/27 12:10:20;;;;;;;;;;;512.00;2380.80;;;;;;5092391;28;19912;-65
2022/09/27 12:12:50;;;;;;;;;;;512.20;2380.80;;;;;;5092373;28;19915;-66
2022/09/27 12:15:15;;;;;;;;;;;512.60;2380.80;;;;;;5092419;28;19908;-63
2022/09/27 12:17:43;;;;;;;;;;;512.60;2380.80;;;;;;5091991;28;20053;-67
2022/09/27 12:20:13;;;;;;;;;;;512.30;2380.80;;;;;;5091912;28;20296;-67
2022/09/27 12:22:46;;;;;;;;;;;487.30;2380.80;;;;;;5092237;28;19923;-66
2022/09/27 12:25:15;;;;;;;;;;;487.00;2380.80;;;;;;5092090;28;19920;-70
2022/09/27 12:28:04;;;;;;;;;;;486.80;2380.80;;;;;;5091944;28;20452;-69
2022/09/27 12:30:30;;;;;;;;;;;486.90;2380.80;;;;;;5049096;28;19912;-68
2022/09/27 12:33:15;;;;;;;;;;;487.20;2380.80;;;;;;5048597;28;19952;-68
2022/09/27 12:35:47;;;;;;;;;;;512.60;2380.80;;;;;;5049068;28;19913;-60
2022/09/27 12:38:14;;;;;;;;;;;537.70;2406.40;;;;;;5049031;28;19909;-61
2022/09/27 12:40:42;;;;;;;;;;;563.50;2432.00;;;;;;5049015;28;19920;-59
2022/09/27 12:43:18;;;;;;;;;;;563.80;2432.00;;;;;;5049171;28;20388;-61
2022/09/27 12:45:55;;;;;;;;;;;563.60;2432.00;;;;;;5048515;28;19948;-62
2022/09/27 12:48:33;;;;;;;;;;;538.50;2406.40;;;;;;5048552;28;19916;-64
2022/09/27 12:51:06;;;;;;;;;;;538.20;2406.40;;;;;;5048992;28;19909;-64
2022/09/27 12:53:41;;;;;;;;;;;538.50;2406.40;;;;;;5048740;28;20059;-65
2022/09/27 12:56:30;;;;;;;;;;;563.20;2432.00;;;;;;5048718;28;19909;-62
2022/09/27 12:59:16;;;;;;;;;;;538.50;2406.40;;;;;;5008693;28;19909;-59
2022/09/27 13:01:41;;;;;;;;;;;538.40;2406.40;;;;;;5008897;28;20014;-59
2022/09/27 13:04:26;;;;;;;;;;;538.30;2406.40;;;;;;5008588;28;20585;-59
2022/09/27 13:06:51;;;;;;;;;;;538.10;2406.40;;;;;;5013202;28;20312;-66
2022/09/27 13:09:32;;;;;;;;;;;538.00;2406.40;;;;;;5028684;28;19913;-60
2022/09/27 13:11:59;;;;;;;;;;;538.20;2406.40;;;;;;5028246;28;20086;-64
2022/09/27 13:14:26;;;;;;;;;;;538.30;2406.40;;;;;;5028165;28;20354;-59
2022/09/27 13:16:51;;;;;;;;;;;538.50;2406.40;;;;;;5028431;28;19941;-60
2022/09/27 13:19:35;;;;;;;;;;;538.20;2406.40;;;;;;5028454;28;19967;-59
2022/09/27 13:22:03;;;;;;;;;;;538.00;2406.40;;;;;;5028281;28;19909;-65
2022/09/27 13:24:41;;;;;;;;;;;538.00;2406.40;;;;;;5028386;28;20350;-61
2022/09/27 13:27:22;;;;;;;;;;;537.90;2406.40;;;;;;5028077;28;19945;-59
2022/09/27 13:29:49;;;;;;;;;;;538.10;2406.40;;;;;;5027841;28;20366;-60
2022/09/27 13:32:16;;;;;;;;;;;537.70;2406.40;;;;;;5028264;28;20350;-62
2022/09/27 13:34:52;;;;;;;;;;;537.60;2406.40;;;;;;5027734;28;19947;-61
2022/09/27 13:37:36;;;;;;;;;;;537.70;2406.40;;;;;;5090766;28;20372;-59
2022/09/27 13:40:14;;;;;;;;;;;538.00;2406.40;;;;;;5090016;28;19912;-59
2022/09/27 13:42:49;;;;;;;;;;;538.40;2406.40;;;;;;5090508;28;20322;-60
2022/09/27 13:45:21;;;;;;;;;;;538.50;2406.40;;;;;;5090460;28;20359;-62
2022/09/27 13:47:48;;;;;;;;;;;538.40;2406.40;;;;;;5090478;28;19912;-59
2022/09/27 13:50:23;;;;;;;;;;;538.10;2406.40;;;;;;5090496;28;20370;-62
2022/09/27 13:53:07;;;;;;;;;;;538.00;2406.40;;;;;;5089994;28;19919;-60
2022/09/27 13:55:41;;;;;;;;;;;537.90;2406.40;;;;;;5090288;28;19957;-60
2022/09/27 13:58:36;;;;;;;;;;;538.00;2406.40;;;;;;5090172;28;19908;-60
2022/09/27 14:01:25;;;;;;;;;;;538.30;2406.40;;;;;;5080153;28;19912;-63